Time;durP1;ratioP1;P1;durP2;ratioP2;P2;SDS_P1;SDS_P2;PMS_P1;PMS_P2;Temp;Humidity;BMP_temperature;BMP_pressure;BME280_temperature;BME280_humidity;BME280_pressure;Samples;Min_cycle;Max_cycle;Signal;HPM_P1;HPM_P2
2020/12/14 00:01:27;;;;;;;30.40;21.85;;;7.00;85.90;;;;;;5074016;28;20426;-60
2020/12/14 00:03:52;;;;;;;30.70;22.30;;;7.00;86.00;;;;;;5073192;28;20044;-62
2020/12/14 00:06:18;;;;;;;26.98;20.52;;;7.00;86.30;;;;;;5073501;28;20020;-62
2020/12/14 00:08:43;;;;;;;25.88;19.88;;;7.00;86.10;;;;;;5073569;28;20553;-64
2020/12/14 00:11:09;;;;;;;26.52;19.88;;;6.90;85.90;;;;;;5073474;28;20025;-62
2020/12/14 00:13:35;;;;;;;26.27;19.65;;;7.00;86.00;;;;;;5073313;28;20047;-65
2020/12/14 00:16:00;;;;;;;25.48;19.42;;;7.00;85.60;;;;;;5073313;28;20357;-65
2020/12/14 00:18:26;;;;;;;25.15;19.17;;;7.00;85.90;;;;;;5072723;28;20115;-64
2020/12/14 00:20:51;;;;;;;26.40;19.60;;;7.00;86.00;;;;;;5073469;28;20070;-65
2020/12/14 00:23:19;;;;;;;25.17;19.77;;;7.00;85.70;;;;;;5075865;28;20037;-65
2020/12/14 00:25:45;;;;;;;28.13;19.90;;;7.00;85.80;;;;;;5072783;28;20036;-65
2020/12/14 00:28:13;;;;;;;24.40;19.17;;;7.00;86.00;;;;;;5073472;28;20111;-65
2020/12/14 00:30:41;;;;;;;27.08;19.20;;;7.00;86.00;;;;;;5073098;28;20045;-61
2020/12/14 00:33:07;;;;;;;25.05;19.05;;;7.00;86.00;;;;;;5073118;28;20043;-58
2020/12/14 00:35:32;;;;;;;26.15;19.30;;;6.90;86.20;;;;;;5072655;28;20044;-61
2020/12/14 00:37:58;;;;;;;22.42;17.10;;;6.90;86.00;;;;;;5071635;28;20063;-63
2020/12/14 00:40:23;;;;;;;21.92;17.80;;;6.90;85.80;;;;;;5071708;28;20093;-61
2020/12/14 00:42:49;;;;;;;22.40;16.75;;;6.90;85.80;;;;;;5071361;28;20110;-62
2020/12/14 00:45:15;;;;;;;20.33;16.48;;;6.90;85.60;;;;;;5072433;28;20032;-61
2020/12/14 00:47:40;;;;;;;18.70;14.13;;;6.90;85.70;;;;;;5077460;28;20028;-62
2020/12/14 00:50:06;;;;;;;19.58;15.05;;;6.90;85.20;;;;;;5089129;28;20033;-61
2020/12/14 00:52:31;;;;;;;21.40;16.23;;;6.80;85.70;;;;;;5072653;28;20041;-60
2020/12/14 00:54:57;;;;;;;18.58;14.93;;;6.70;86.10;;;;;;5070816;28;20128;-62
2020/12/14 00:57:22;;;;;;;18.27;15.05;;;6.80;85.90;;;;;;5072134;28;20059;-64
2020/12/14 00:59:48;;;;;;;16.85;13.82;;;6.80;85.60;;;;;;5071046;28;20178;-62
2020/12/14 01:02:14;;;;;;;21.48;16.02;;;6.80;85.60;;;;;;5071611;28;20250;-61
2020/12/14 01:04:39;;;;;;;17.30;13.93;;;6.80;85.50;;;;;;5072667;28;20064;-63
2020/12/14 01:07:05;;;;;;;19.45;14.90;;;6.80;85.70;;;;;;5070814;28;20044;-63
2020/12/14 01:09:30;;;;;;;19.65;15.18;;;6.80;85.50;;;;;;5072387;28;20119;-60
2020/12/14 01:11:56;;;;;;;21.38;14.68;;;6.90;85.30;;;;;;5072468;28;20090;-59
2020/12/14 01:14:21;;;;;;;19.00;14.82;;;6.90;85.00;;;;;;5072936;28;20032;-61
2020/12/14 01:16:47;;;;;;;17.20;13.88;;;6.80;85.30;;;;;;5076234;28;20526;-63
2020/12/14 01:19:13;;;;;;;18.15;14.98;;;6.90;85.40;;;;;;5081433;28;20037;-63
2020/12/14 01:21:38;;;;;;;18.17;14.15;;;6.90;85.20;;;;;;5075661;28;20044;-62
2020/12/14 01:24:04;;;;;;;20.08;15.35;;;6.80;85.80;;;;;;5073221;28;20028;-60
2020/12/14 01:26:31;;;;;;;19.73;15.35;;;6.70;85.30;;;;;;5072357;28;20401;-63
2020/12/14 01:28:57;;;;;;;18.73;15.50;;;6.70;85.60;;;;;;5074884;28;20029;-65
2020/12/14 01:31:23;;;;;;;18.83;14.93;;;6.50;85.90;;;;;;5072010;28;20067;-63
2020/12/14 01:33:49;;;;;;;18.55;15.18;;;6.50;86.00;;;;;;5072051;28;20102;-64
2020/12/14 01:36:15;;;;;;;20.58;15.25;;;6.60;86.10;;;;;;5070945;28;20090;-65
2020/12/14 01:38:40;;;;;;;16.00;13.73;;;6.60;85.60;;;;;;5070838;28;20036;-64
2020/12/14 01:41:06;;;;;;;19.60;14.32;;;6.60;85.70;;;;;;5071956;28;20491;-63
2020/12/14 01:43:31;;;;;;;16.52;14.68;;;6.60;85.30;;;;;;5072005;28;20036;-63
2020/12/14 01:45:57;;;;;;;16.67;13.48;;;6.60;85.50;;;;;;5071575;28;20134;-65
2020/12/14 01:48:25;;;;;;;16.65;14.55;;;6.60;85.50;;;;;;5082329;28;20496;-65
2020/12/14 01:50:52;;;;;;;16.70;14.00;;;6.60;85.30;;;;;;5085074;28;20344;-64
2020/12/14 01:53:20;;;;;;;18.77;15.23;;;6.60;85.70;;;;;;5071382;28;20037;-65
2020/12/14 01:55:49;;;;;;;17.55;14.55;;;6.60;85.50;;;;;;5071229;28;20119;-60
2020/12/14 01:58:15;;;;;;;19.83;15.77;;;6.60;85.50;;;;;;5071991;28;20051;-61
2020/12/14 02:00:40;;;;;;;18.58;16.38;;;6.60;85.50;;;;;;5071739;28;20036;-61
2020/12/14 02:03:06;;;;;;;18.48;15.60;;;6.60;85.30;;;;;;5071424;28;20478;-63
2020/12/14 02:05:31;;;;;;;17.75;14.93;;;6.60;85.50;;;;;;5071102;28;20392;-66
2020/12/14 02:07:57;;;;;;;18.90;15.75;;;6.60;85.40;;;;;;5071354;28;20404;-65
2020/12/14 02:10:23;;;;;;;19.27;15.45;;;6.60;85.40;;;;;;5071604;28;20040;-65
2020/12/14 02:12:48;;;;;;;16.98;14.18;;;6.60;85.50;;;;;;5071229;28;20112;-64
2020/12/14 02:15:15;;;;;;;16.65;14.88;;;6.50;85.70;;;;;;5071151;28;20056;-64
2020/12/14 02:17:40;;;;;;;16.42;13.73;;;6.60;85.50;;;;;;5069962;28;20044;-63
2020/12/14 02:20:06;;;;;;;18.60;14.82;;;6.60;85.70;;;;;;5074713;28;20479;-65
2020/12/14 02:22:32;;;;;;;16.77;13.55;;;6.50;85.80;;;;;;5073467;28;20384;-64
2020/12/14 02:24:59;;;;;;;20.05;14.38;;;6.50;85.80;;;;;;5075369;28;20386;-65
2020/12/14 02:27:26;;;;;;;16.08;13.07;;;6.50;85.60;;;;;;5075273;28;20028;-64
2020/12/14 02:29:53;;;;;;;17.23;13.50;;;6.50;86.10;;;;;;5075319;28;20032;-63
2020/12/14 02:32:20;;;;;;;17.30;13.43;;;6.50;85.80;;;;;;5075179;28;20071;-64
2020/12/14 02:34:46;;;;;;;17.80;13.32;;;6.40;86.10;;;;;;5075923;28;20541;-63
2020/12/14 02:37:14;;;;;;;15.90;13.48;;;6.40;86.10;;;;;;5076437;28;20041;-65
2020/12/14 02:39:40;;;;;;;17.58;13.23;;;6.30;85.90;;;;;;5074285;28;20040;-64
2020/12/14 02:42:11;;;;;;;14.52;12.05;;;6.40;86.10;;;;;;5074894;28;20518;-63
2020/12/14 02:44:37;;;;;;;16.25;13.13;;;6.40;85.70;;;;;;5074833;28;20040;-64
2020/12/14 02:47:03;;;;;;;17.30;12.15;;;6.40;85.80;;;;;;5073673;28;20029;-64
2020/12/14 02:49:29;;;;;;;15.88;13.43;;;6.40;85.70;;;;;;5094696;28;20042;-63
2020/12/14 02:51:55;;;;;;;16.77;12.05;;;6.40;85.50;;;;;;5076186;28;20380;-63
2020/12/14 02:54:20;;;;;;;15.23;12.43;;;6.30;85.60;;;;;;5074582;28;20036;-64
2020/12/14 02:56:46;;;;;;;14.23;12.52;;;6.30;86.40;;;;;;5078398;28;20044;-63
2020/12/14 02:59:13;;;;;;;14.95;12.60;;;6.30;85.90;;;;;;5079587;28;20036;-64
2020/12/14 03:01:39;;;;;;;13.98;12.13;;;6.30;86.10;;;;;;5078596;28;20547;-63
2020/12/14 03:04:05;;;;;;;17.30;11.55;;;6.30;85.60;;;;;;5074517;28;20092;-63
2020/12/14 03:06:31;;;;;;;15.07;12.35;;;6.30;85.70;;;;;;5070649;28;20028;-63
2020/12/14 03:08:56;;;;;;;13.43;12.05;;;6.30;85.60;;;;;;5072491;28;20032;-64
2020/12/14 03:11:22;;;;;;;16.08;12.52;;;6.30;85.60;;;;;;5072658;28;20048;-64
2020/12/14 03:13:48;;;;;;;15.73;12.45;;;6.30;85.60;;;;;;5073502;28;20475;-64
2020/12/14 03:16:13;;;;;;;18.88;13.13;;;6.30;85.50;;;;;;5073490;28;20131;-64
2020/12/14 03:18:39;;;;;;;15.32;12.20;;;6.30;85.30;;;;;;5073111;28;20683;-63
2020/12/14 03:21:08;;;;;;;13.57;11.98;;;6.20;85.60;;;;;;5072832;28;20141;-63
2020/12/14 03:23:34;;;;;;;12.70;11.15;;;6.20;85.80;;;;;;5071340;28;20065;-63
2020/12/14 03:25:59;;;;;;;12.80;11.07;;;6.20;85.80;;;;;;5072813;28;20040;-63
2020/12/14 03:28:25;;;;;;;13.82;11.05;;;6.20;85.80;;;;;;5074576;28;20111;-63
2020/12/14 03:30:51;;;;;;;12.48;11.02;;;6.20;85.80;;;;;;5074318;28;20499;-63
2020/12/14 03:33:17;;;;;;;14.80;11.07;;;6.20;85.40;;;;;;5075202;28;20147;-63
2020/12/14 03:35:43;;;;;;;12.40;11.10;;;6.20;85.20;;;;;;5073827;28;20044;-63
2020/12/14 03:38:09;;;;;;;11.63;9.98;;;6.30;84.90;;;;;;5074749;28;20036;-63
2020/12/14 03:40:34;;;;;;;10.63;9.50;;;6.30;84.90;;;;;;5074196;28;20037;-63
2020/12/14 03:43:00;;;;;;;10.73;9.63;;;6.30;84.90;;;;;;5074233;28;20064;-63
2020/12/14 03:45:25;;;;;;;12.05;9.80;;;6.30;85.00;;;;;;5076304;28;20124;-63
2020/12/14 03:47:51;;;;;;;12.38;9.65;;;6.30;85.00;;;;;;5082169;28;20032;-63
2020/12/14 03:50:16;;;;;;;10.80;9.57;;;6.30;84.70;;;;;;5094655;28;20063;-62
2020/12/14 03:52:42;;;;;;;10.15;9.05;;;6.40;84.40;;;;;;5076151;28;20029;-63
2020/12/14 03:55:07;;;;;;;11.05;9.48;;;6.30;84.50;;;;;;5073579;28;20454;-63
2020/12/14 03:57:33;;;;;;;11.93;9.20;;;6.20;84.30;;;;;;5073335;28;20044;-63
2020/12/14 03:59:58;;;;;;;11.73;9.93;;;6.10;85.00;;;;;;5073699;28;20077;-64
2020/12/14 04:02:27;;;;;;;10.85;9.25;;;6.10;85.10;;;;;;5073345;28;20048;-61
2020/12/14 04:04:53;;;;;;;12.65;10.00;;;6.00;85.20;;;;;;5075987;28;20094;-65
2020/12/14 04:07:19;;;;;;;11.13;9.93;;;6.00;85.20;;;;;;5082529;28;20090;-63
2020/12/14 04:09:45;;;;;;;11.20;9.18;;;6.00;85.10;;;;;;5083494;28;20562;-65
2020/12/14 04:12:10;;;;;;;10.25;8.75;;;6.00;85.20;;;;;;5081363;28;20657;-64
2020/12/14 04:14:36;;;;;;;10.68;9.32;;;6.00;85.00;;;;;;5080847;28;20024;-62
2020/12/14 04:17:01;;;;;;;11.30;9.35;;;6.00;85.40;;;;;;5075239;28;20066;-63
2020/12/14 04:19:27;;;;;;;11.00;8.73;;;6.00;85.10;;;;;;5074183;28;20051;-62
2020/12/14 04:21:53;;;;;;;9.73;8.68;;;6.00;85.00;;;;;;5073891;28;20048;-66
2020/12/14 04:24:18;;;;;;;10.50;9.40;;;6.00;84.90;;;;;;5073444;28;20170;-66
2020/12/14 04:26:44;;;;;;;10.00;8.98;;;6.00;84.60;;;;;;5073966;28;20414;-65
2020/12/14 04:29:10;;;;;;;10.88;9.07;;;5.90;84.60;;;;;;5074004;28;20043;-66
2020/12/14 04:31:36;;;;;;;11.05;9.25;;;5.90;84.90;;;;;;5072922;28;20044;-66
2020/12/14 04:34:03;;;;;;;9.63;8.68;;;5.90;84.80;;;;;;5076034;28;20399;-65
2020/12/14 04:36:29;;;;;;;9.50;8.48;;;5.90;84.90;;;;;;5075459;28;20021;-66
2020/12/14 04:38:55;;;;;;;9.38;8.40;;;5.90;85.40;;;;;;5075912;28;20514;-65
2020/12/14 04:41:22;;;;;;;9.95;8.95;;;6.00;84.60;;;;;;5077912;28;20043;-66
2020/12/14 04:43:50;;;;;;;13.07;8.85;;;6.00;84.60;;;;;;5072404;28;20046;-66
2020/12/14 04:46:18;;;;;;;10.55;9.05;;;6.00;84.30;;;;;;5074929;28;20507;-66
2020/12/14 04:48:44;;;;;;;9.80;8.80;;;5.90;84.40;;;;;;5089316;28;20091;-66
2020/12/14 04:51:10;;;;;;;10.60;9.13;;;5.90;84.40;;;;;;5080509;28;20028;-66
2020/12/14 04:53:41;;;;;;;10.88;9.55;;;5.90;84.40;;;;;;5073759;28;20040;-66
2020/12/14 04:56:08;;;;;;;10.68;9.48;;;6.00;84.50;;;;;;5073477;28;20078;-65
2020/12/14 04:58:35;;;;;;;14.45;12.20;;;6.00;84.40;;;;;;5072551;28;20559;-64
2020/12/14 05:01:03;;;;;;;13.52;9.07;;;6.00;84.30;;;;;;5072189;28;20093;-65
2020/12/14 05:03:29;;;;;;;9.88;8.85;;;6.00;84.60;;;;;;5072147;28;20071;-66
2020/12/14 05:05:55;;;;;;;10.20;8.93;;;5.90;84.60;;;;;;5070831;28;20071;-64
2020/12/14 05:08:29;;;;;;;11.27;9.25;;;5.90;84.70;;;;;;5072914;28;20475;-65
2020/12/14 05:10:55;;;;;;;10.10;9.10;;;5.90;84.70;;;;;;5072807;28;20115;-64
2020/12/14 05:13:28;;;;;;;9.48;8.45;;;5.90;85.20;;;;;;5073892;28;20059;-65
2020/12/14 05:15:54;;;;;;;10.43;8.95;;;5.90;85.40;;;;;;5072167;28;20036;-66
2020/12/14 05:18:24;;;;;;;10.23;8.63;;;5.90;85.30;;;;;;5072123;28;20387;-65
2020/12/14 05:21:03;;;;;;;9.82;8.48;;;5.90;85.40;;;;;;5072147;28;20094;-66
2020/12/14 05:23:30;;;;;;;11.90;9.48;;;5.80;85.50;;;;;;5071297;28;20522;-65
2020/12/14 05:26:07;;;;;;;10.43;8.77;;;5.90;85.40;;;;;;5070246;28;20025;-65
2020/12/14 05:28:33;;;;;;;9.88;8.85;;;5.70;85.70;;;;;;5072387;28;20418;-64
2020/12/14 05:30:59;;;;;;;11.45;8.82;;;5.70;86.30;;;;;;5072000;28;20029;-65
2020/12/14 05:33:30;;;;;;;9.80;8.80;;;5.70;86.30;;;;;;5072304;28;20139;-64
2020/12/14 05:35:56;;;;;;;10.60;9.02;;;5.70;86.10;;;;;;5057508;28;20111;-66
2020/12/14 05:38:28;;;;;;;11.93;9.77;;;5.60;87.00;;;;;;5069659;28;20424;-66
2020/12/14 05:41:02;;;;;;;12.15;9.65;;;5.50;87.40;;;;;;5072008;28;20033;-66
2020/12/14 05:43:30;;;;;;;10.52;9.10;;;5.40;88.10;;;;;;5071944;28;20052;-65
2020/12/14 05:45:56;;;;;;;12.85;9.32;;;5.50;88.10;;;;;;5071427;28;20107;-65
2020/12/14 05:48:32;;;;;;;21.10;16.27;;;5.50;88.00;;;;;;5081431;28;20081;-65
2020/12/14 05:51:01;;;;;;;13.13;9.48;;;5.40;88.50;;;;;;5086444;28;20044;-65
2020/12/14 05:53:35;;;;;;;11.48;9.55;;;5.50;88.60;;;;;;5069724;28;20035;-66
2020/12/14 05:56:02;;;;;;;12.95;9.77;;;5.50;88.50;;;;;;5070493;28;20116;-66
2020/12/14 05:58:32;;;;;;;11.60;9.23;;;5.50;88.30;;;;;;5071981;28;20094;-65
2020/12/14 06:01:01;;;;;;;10.35;9.02;;;5.50;88.30;;;;;;5071817;28;20097;-65
2020/12/14 06:03:27;;;;;;;11.15;9.40;;;5.60;88.00;;;;;;5071582;28;20045;-65
2020/12/14 06:06:03;;;;;;;10.98;9.35;;;5.60;87.80;;;;;;5071073;28;20055;-64
2020/12/14 06:08:35;;;;;;;12.35;9.73;;;5.60;87.90;;;;;;5072169;28;20028;-64
2020/12/14 06:11:04;;;;;;;12.13;9.65;;;5.60;87.90;;;;;;5074268;28;20082;-65
2020/12/14 06:13:31;;;;;;;12.85;10.55;;;5.60;87.90;;;;;;5074914;28;20041;-65
2020/12/14 06:16:02;;;;;;;12.98;10.15;;;5.60;88.20;;;;;;5072257;28;20426;-64
2020/12/14 06:18:36;;;;;;;12.07;9.50;;;5.60;88.20;;;;;;5072666;28;20024;-65
2020/12/14 06:21:02;;;;;;;11.75;9.80;;;5.60;88.00;;;;;;5071249;28;20047;-64
2020/12/14 06:23:39;;;;;;;11.50;9.40;;;5.60;88.10;;;;;;5071320;28;20048;-64
2020/12/14 06:26:07;;;;;;;11.48;9.18;;;5.50;88.50;;;;;;5071963;28;20067;-63
2020/12/14 06:28:34;;;;;;;11.75;9.80;;;5.60;88.70;;;;;;5071917;28;20502;-65
2020/12/14 06:31:00;;;;;;;12.27;9.57;;;5.60;88.30;;;;;;5071379;28;20036;-67
2020/12/14 06:33:33;;;;;;;11.57;9.63;;;5.50;88.50;;;;;;5070559;28;20041;-64
2020/12/14 06:36:17;;;;;;;12.38;10.63;;;5.50;88.50;;;;;;5050968;28;20036;-64
2020/12/14 06:38:44;;;;;;;11.23;9.90;;;5.60;88.40;;;;;;5051078;28;20033;-64
2020/12/14 06:41:21;;;;;;;18.45;10.60;;;5.50;88.50;;;;;;5050802;28;20353;-64
2020/12/14 06:43:48;;;;;;;11.75;9.80;;;5.60;88.40;;;;;;5050757;28;20423;-64
2020/12/14 06:46:25;;;;;;;13.82;10.60;;;5.60;88.50;;;;;;5051162;28;20064;-64
2020/12/14 06:48:52;;;;;;;12.88;10.77;;;5.60;88.20;;;;;;5079337;28;20551;-63
2020/12/14 06:51:18;;;;;;;29.10;22.35;;;5.60;88.20;;;;;;5091111;28;20031;-64
2020/12/14 06:53:46;;;;;;;14.02;11.52;;;5.60;88.10;;;;;;5071285;28;20080;-64
2020/12/14 06:56:35;;;;;;;12.60;10.23;;;5.70;88.00;;;;;;5071038;28;20035;-64
2020/12/14 06:59:01;;;;;;;12.13;10.20;;;5.80;87.60;;;;;;5040212;28;20084;-64
2020/12/14 07:01:40;;;;;;;12.88;9.95;;;5.80;87.30;;;;;;5051149;28;20060;-66
2020/12/14 07:04:15;;;;;;;13.30;9.93;;;5.80;87.20;;;;;;5060023;28;20028;-65
2020/12/14 07:06:41;;;;;;;13.85;11.13;;;5.80;87.30;;;;;;5074598;28;20090;-66
2020/12/14 07:09:33;;;;;;;16.15;12.98;;;5.80;87.10;;;;;;5054662;28;20120;-64
2020/12/14 07:12:10;;;;;;;12.73;10.52;;;5.70;87.60;;;;;;5056600;28;20043;-64
2020/12/14 07:14:49;;;;;;;11.50;9.55;;;5.70;87.80;;;;;;5074354;28;20036;-64
2020/12/14 07:17:21;;;;;;;12.32;9.85;;;5.70;87.30;;;;;;5074436;28;20040;-65
2020/12/14 07:19:49;;;;;;;13.20;10.35;;;5.80;87.20;;;;;;5074487;28;20028;-65
2020/12/14 07:22:18;;;;;;;13.35;11.00;;;5.70;87.20;;;;;;5074375;28;20036;-64
2020/12/14 07:24:43;;;;;;;12.52;10.70;;;5.80;86.90;;;;;;5074685;28;20112;-65
2020/12/14 07:27:10;;;;;;;12.80;10.27;;;5.70;87.00;;;;;;5075108;28;20044;-65
2020/12/14 07:29:36;;;;;;;14.90;11.60;;;5.70;87.30;;;;;;5074882;28;20545;-64
2020/12/14 07:32:05;;;;;;;15.60;12.60;;;5.80;86.70;;;;;;5080728;28;20045;-63
2020/12/14 07:34:31;;;;;;;15.15;11.05;;;5.80;86.60;;;;;;5081436;28;20107;-64
2020/12/14 07:36:57;;;;;;;13.82;10.68;;;5.80;86.60;;;;;;5087057;28;20041;-64
2020/12/14 07:39:22;;;;;;;15.27;11.13;;;5.90;86.30;;;;;;5076682;28;20048;-64
2020/12/14 07:41:48;;;;;;;13.18;10.77;;;5.80;86.40;;;;;;5074257;28;20048;-65
2020/12/14 07:44:14;;;;;;;14.27;10.68;;;5.80;86.70;;;;;;5073904;28;20479;-64
2020/12/14 07:46:40;;;;;;;14.63;10.60;;;5.80;86.50;;;;;;5073831;28;20032;-65
2020/12/14 07:49:11;;;;;;;14.68;11.68;;;5.80;86.30;;;;;;5089912;28;20036;-64
2020/12/14 07:51:44;;;;;;;14.35;11.15;;;5.70;86.60;;;;;;5087454;28;20036;-64
2020/12/14 07:54:18;;;;;;;16.20;10.80;;;5.70;87.10;;;;;;5073752;28;20071;-64
2020/12/14 07:56:49;;;;;;;14.80;11.55;;;5.70;86.90;;;;;;5073494;28;20028;-65
2020/12/14 07:59:20;;;;;;;15.57;11.38;;;5.70;87.00;;;;;;5073848;28;20449;-65
2020/12/14 08:01:47;;;;;;;14.00;10.85;;;5.70;86.90;;;;;;5073287;28;20033;-67
2020/12/14 08:04:22;;;;;;;14.27;10.35;;;5.80;86.60;;;;;;5076150;28;20492;-65
2020/12/14 08:06:49;;;;;;;13.85;10.98;;;5.90;86.50;;;;;;5077085;28;20029;-66
2020/12/14 08:09:18;;;;;;;19.08;12.05;;;5.80;86.40;;;;;;5066558;28;20403;-65
2020/12/14 08:11:46;;;;;;;17.00;11.27;;;5.90;86.30;;;;;;5074352;28;20059;-65
2020/12/14 08:14:13;;;;;;;21.25;12.00;;;5.90;86.20;;;;;;5073169;28;20024;-66
2020/12/14 08:16:42;;;;;;;15.27;11.00;;;5.90;86.20;;;;;;5072245;28;20534;-64
2020/12/14 08:19:14;;;;;;;16.05;11.25;;;6.00;86.00;;;;;;5072703;28;20028;-64
2020/12/14 08:21:40;;;;;;;13.50;10.70;;;6.00;85.50;;;;;;5071915;28;20064;-65
2020/12/14 08:24:09;;;;;;;17.63;10.60;;;6.00;85.40;;;;;;5071762;28;20068;-62
2020/12/14 08:26:36;;;;;;;13.52;10.70;;;6.00;85.40;;;;;;5070703;28;20115;-65
2020/12/14 08:29:02;;;;;;;18.38;10.52;;;6.10;85.30;;;;;;5071327;28;20024;-64
2020/12/14 08:31:28;;;;;;;16.25;10.32;;;6.10;84.80;;;;;;5071467;28;20146;-65
2020/12/14 08:33:57;;;;;;;14.20;11.07;;;6.10;85.00;;;;;;5071494;28;20115;-64
2020/12/14 08:36:24;;;;;;;16.15;11.88;;;6.10;85.10;;;;;;5053115;28;20041;-64
2020/12/14 08:38:50;;;;;;;14.13;10.63;;;6.10;85.00;;;;;;5058471;28;20021;-64
2020/12/14 08:41:23;;;;;;;19.60;11.07;;;6.10;84.90;;;;;;5075897;28;20044;-64
2020/12/14 08:43:53;;;;;;;25.23;12.52;;;6.10;84.60;;;;;;5073461;28;20040;-65
2020/12/14 08:46:20;;;;;;;34.13;19.23;;;6.20;84.70;;;;;;5070445;28;20021;-66
2020/12/14 08:48:50;;;;;;;20.85;13.85;;;6.20;84.30;;;;;;5067629;28;20033;-65
2020/12/14 08:51:26;;;;;;;16.90;11.88;;;6.20;84.40;;;;;;5058961;28;20615;-65
2020/12/14 08:53:53;;;;;;;17.83;12.60;;;6.20;84.30;;;;;;5084727;28;20029;-63
2020/12/14 08:56:21;;;;;;;15.77;11.65;;;6.30;84.30;;;;;;5083658;28;20036;-64
2020/12/14 08:58:52;;;;;;;20.85;12.93;;;6.30;84.70;;;;;;5080092;28;20033;-65
2020/12/14 09:01:21;;;;;;;16.40;10.82;;;6.40;83.70;;;;;;5074186;28;20076;-65
2020/12/14 09:03:49;;;;;;;15.63;11.82;;;6.40;84.10;;;;;;5072365;28;20536;-65
2020/12/14 09:06:22;;;;;;;15.70;11.85;;;6.40;84.00;;;;;;5072353;28;20403;-65
2020/12/14 09:09:14;;;;;;;12.55;10.85;;;6.50;83.80;;;;;;5072227;28;20036;-63
2020/12/14 09:11:46;;;;;;;14.02;10.55;;;6.40;83.80;;;;;;5067308;28;20037;-63
2020/12/14 09:14:25;;;;;;;12.98;10.48;;;6.50;83.80;;;;;;5072061;28;20055;-65
2020/12/14 09:16:56;;;;;;;12.52;9.80;;;6.60;83.20;;;;;;5071922;28;20086;-65
2020/12/14 09:19:23;;;;;;;11.48;10.10;;;6.60;82.80;;;;;;5072106;28;20511;-64
2020/12/14 09:21:50;;;;;;;13.00;10.50;;;6.60;82.90;;;;;;5072456;28;20029;-63
2020/12/14 09:24:23;;;;;;;11.43;8.95;;;6.60;82.90;;;;;;5071781;28;20047;-64
2020/12/14 09:26:50;;;;;;;19.98;14.55;;;6.70;82.90;;;;;;5072263;28;20040;-65
2020/12/14 09:29:16;;;;;;;13.38;9.85;;;6.70;82.80;;;;;;5069972;28;20171;-64
2020/12/14 09:31:49;;;;;;;12.18;9.52;;;6.80;82.50;;;;;;5071626;28;20139;-64
2020/12/14 09:34:15;;;;;;;14.13;10.75;;;6.90;82.20;;;;;;5071832;28;20103;-66
2020/12/14 09:36:40;;;;;;;12.30;9.75;;;6.90;82.50;;;;;;5070652;28;20036;-63
2020/12/14 09:39:06;;;;;;;10.48;8.90;;;6.90;82.70;;;;;;5071809;28;20178;-63
2020/12/14 09:41:32;;;;;;;9.75;8.60;;;7.00;81.70;;;;;;5071595;28;20040;-63
2020/12/14 09:43:59;;;;;;;11.68;9.30;;;7.10;81.30;;;;;;5071700;28;20119;-64
2020/12/14 09:46:28;;;;;;;11.23;8.43;;;7.20;81.10;;;;;;5071460;28;20402;-62
2020/12/14 09:48:58;;;;;;;12.20;9.18;;;7.20;80.70;;;;;;5081101;28;20040;-65
2020/12/14 09:51:25;;;;;;;10.82;8.23;;;7.30;80.60;;;;;;5056524;28;20048;-64
2020/12/14 09:53:51;;;;;;;14.32;8.63;;;7.30;80.50;;;;;;5051888;28;20029;-64
2020/12/14 09:56:17;;;;;;;10.63;8.30;;;7.30;79.80;;;;;;5067763;28;20044;-64
2020/12/14 09:58:43;;;;;;;9.80;8.35;;;7.30;79.80;;;;;;5071920;28;20048;-64
2020/12/14 10:01:09;;;;;;;10.73;8.50;;;7.40;79.60;;;;;;5073009;28;20353;-64
2020/12/14 10:03:35;;;;;;;10.60;8.82;;;7.40;79.60;;;;;;5073078;28;20451;-62
2020/12/14 10:06:01;;;;;;;10.40;8.57;;;7.50;79.30;;;;;;5072428;28;20067;-65
2020/12/14 10:08:26;;;;;;;9.75;8.07;;;7.50;79.00;;;;;;5060722;28;20028;-64
2020/12/14 10:10:55;;;;;;;9.20;7.93;;;7.50;79.30;;;;;;5071625;28;20048;-63
2020/12/14 10:13:22;;;;;;;8.95;7.60;;;7.50;79.20;;;;;;5070674;28;20159;-61
2020/12/14 10:15:47;;;;;;;9.05;7.63;;;7.50;79.00;;;;;;5071361;28;20047;-62
2020/12/14 10:18:13;;;;;;;8.88;7.57;;;7.50;78.90;;;;;;5071663;28;20480;-62
2020/12/14 10:20:38;;;;;;;11.30;8.10;;;7.60;78.90;;;;;;5088074;22;20048;-59
2020/12/14 10:23:04;;;;;;;9.43;8.13;;;7.60;78.80;;;;;;5073460;28;20032;-61
2020/12/14 10:25:30;;;;;;;13.20;7.78;;;7.60;78.90;;;;;;5073068;28;20039;-62
2020/12/14 10:27:55;;;;;;;8.25;7.32;;;7.60;78.90;;;;;;5091105;28;20103;-61
2020/12/14 10:30:21;;;;;;;9.73;7.72;;;7.60;78.80;;;;;;5055802;28;20059;-61
2020/12/14 10:32:47;;;;;;;12.10;7.90;;;7.70;78.50;;;;;;5091097;28;20055;-61
2020/12/14 10:35:12;;;;;;;11.23;7.80;;;7.70;78.70;;;;;;5052905;28;20093;-61
2020/12/14 10:37:39;;;;;;;10.07;7.28;;;7.80;78.40;;;;;;5078584;28;20040;-61
2020/12/14 10:40:06;;;;;;;9.40;8.00;;;7.90;78.70;;;;;;5093519;28;20024;-61
2020/12/14 10:42:33;;;;;;;9.52;7.80;;;8.00;77.60;;;;;;5095523;28;20024;-62
2020/12/14 10:45:02;;;;;;;8.98;7.65;;;8.00;77.30;;;;;;5095559;28;20032;-56
2020/12/14 10:47:28;;;;;;;7.90;7.10;;;8.10;77.30;;;;;;5098982;28;20056;-60
2020/12/14 10:49:54;;;;;;;10.25;7.53;;;8.10;76.80;;;;;;5112647;28;20043;-60
2020/12/14 10:52:20;;;;;;;9.23;8.23;;;8.10;76.80;;;;;;5065627;28;20075;-57
2020/12/14 10:54:45;;;;;;;9.00;7.18;;;8.10;76.90;;;;;;5072925;28;20418;-61
2020/12/14 10:57:11;;;;;;;9.23;7.75;;;8.10;76.60;;;;;;5095061;28;20037;-61
2020/12/14 10:59:36;;;;;;;8.55;7.65;;;8.20;76.60;;;;;;5083544;28;20470;-61
2020/12/14 11:02:02;;;;;;;9.65;7.90;;;8.30;76.40;;;;;;5093439;28;20475;-59
2020/12/14 11:04:28;;;;;;;8.23;7.25;;;8.30;76.10;;;;;;5083641;28;20039;-59
2020/12/14 11:06:53;;;;;;;9.05;7.38;;;8.50;75.30;;;;;;5058649;28;20036;-61
2020/12/14 11:09:19;;;;;;;9.52;7.85;;;8.60;74.70;;;;;;5083334;28;20544;-60
2020/12/14 11:11:45;;;;;;;9.77;7.20;;;8.60;74.50;;;;;;5093821;28;20040;-60
2020/12/14 11:14:11;;;;;;;9.82;7.78;;;8.60;74.70;;;;;;5091686;28;20032;-59
2020/12/14 11:16:42;;;;;;;8.35;7.43;;;8.60;74.10;;;;;;5056549;28;20028;-59
2020/12/14 11:19:07;;;;;;;7.97;6.97;;;8.60;74.60;;;;;;5079386;28;20040;-56
2020/12/14 11:21:33;;;;;;;8.18;7.32;;;8.60;74.30;;;;;;5075989;28;20042;-59
2020/12/14 11:23:59;;;;;;;9.07;7.45;;;8.60;74.60;;;;;;5090598;28;20557;-60
2020/12/14 11:26:24;;;;;;;9.38;7.90;;;8.70;74.20;;;;;;5073926;28;20035;-60
2020/12/14 11:28:50;;;;;;;9.18;7.68;;;8.60;73.90;;;;;;5073977;28;20028;-62
2020/12/14 11:31:19;;;;;;;9.10;7.80;;;8.60;74.40;;;;;;5089005;28;20387;-62
2020/12/14 11:33:45;;;;;;;10.13;7.70;;;8.70;74.00;;;;;;5093706;28;20125;-60
2020/12/14 11:36:10;;;;;;;9.60;7.88;;;8.70;73.70;;;;;;5074137;28;20055;-61
2020/12/14 11:38:36;;;;;;;8.07;6.70;;;8.70;74.00;;;;;;5083027;28;20048;-61
2020/12/14 11:41:02;;;;;;;8.15;7.35;;;8.60;73.80;;;;;;5094217;28;20115;-63
2020/12/14 11:43:28;;;;;;;9.30;7.65;;;8.60;73.70;;;;;;5084558;28;20181;-60
2020/12/14 11:45:53;;;;;;;8.38;7.13;;;8.60;73.90;;;;;;5073680;28;20054;-60
2020/12/14 11:48:19;;;;;;;9.30;7.15;;;8.70;73.90;;;;;;5077735;28;20376;-62
2020/12/14 11:50:44;;;;;;;8.52;7.55;;;8.80;73.50;;;;;;5054693;28;20131;-61
2020/12/14 11:53:10;;;;;;;10.07;9.02;;;8.90;73.50;;;;;;5055811;28;20368;-61
2020/12/14 11:55:39;;;;;;;9.25;7.35;;;8.90;72.90;;;;;;5073013;28;20047;-61
2020/12/14 11:58:05;;;;;;;11.10;8.07;;;8.80;73.60;;;;;;5077287;28;20482;-61
2020/12/14 12:00:32;;;;;;;10.10;7.80;;;8.90;73.50;;;;;;5093499;28;20040;-61
2020/12/14 12:02:57;;;;;;;10.05;8.00;;;8.90;73.30;;;;;;5093092;28;20055;-62
2020/12/14 12:05:24;;;;;;;8.20;7.30;;;8.80;73.40;;;;;;5091183;28;20059;-60
2020/12/14 12:07:49;;;;;;;8.75;7.25;;;8.80;73.50;;;;;;5084199;28;20051;-59
2020/12/14 12:10:16;;;;;;;8.35;7.47;;;8.90;73.50;;;;;;5094425;28;20036;-61
2020/12/14 12:12:41;;;;;;;9.68;7.38;;;9.00;72.70;;;;;;5094097;28;20040;-60
2020/12/14 12:15:07;;;;;;;8.85;7.95;;;9.00;73.40;;;;;;5075126;28;20151;-61
2020/12/14 12:17:33;;;;;;;9.00;7.65;;;9.10;72.80;;;;;;5073159;28;20106;-61
2020/12/14 12:19:58;;;;;;;8.68;7.75;;;9.10;72.40;;;;;;5090197;28;20040;-61
2020/12/14 12:22:24;;;;;;;8.73;7.82;;;9.10;72.20;;;;;;5093421;28;20482;-62
2020/12/14 12:24:50;;;;;;;9.20;7.50;;;9.10;72.10;;;;;;5078485;28;20049;-62
2020/12/14 12:27:16;;;;;;;8.23;7.40;;;9.00;72.50;;;;;;5056054;28;20111;-60
2020/12/14 12:29:41;;;;;;;9.50;7.63;;;9.00;72.50;;;;;;5077552;28;20051;-61
2020/12/14 12:32:07;;;;;;;9.30;7.63;;;9.00;72.50;;;;;;5095632;28;20028;-60
2020/12/14 12:34:34;;;;;;;8.95;7.82;;;9.10;71.90;;;;;;5094259;28;20111;-61
2020/12/14 12:37:01;;;;;;;12.70;9.30;;;9.10;71.80;;;;;;5075277;28;20028;-60
2020/12/14 12:39:27;;;;;;;10.88;8.30;;;9.20;71.50;;;;;;5093092;28;20085;-60
2020/12/14 12:41:54;;;;;;;13.52;7.72;;;9.30;71.30;;;;;;5096015;28;20028;-60
2020/12/14 12:44:20;;;;;;;8.93;7.88;;;9.30;71.00;;;;;;5093829;28;20538;-61